createdAt,value
2019-03-04T00:01:40.657Z,9.47
2019-03-04T00:03:48.126Z,9.44
2019-03-04T00:05:55.618Z,9.43
2019-03-04T00:08:03.260Z,9.40
2019-03-04T00:10:13.255Z,9.39
2019-03-04T00:12:20.753Z,9.38
2019-03-04T00:14:28.322Z,9.36
2019-03-04T00:16:35.991Z,9.33
2019-03-04T00:18:43.501Z,9.31
2019-03-04T00:20:51.145Z,9.30
2019-03-04T00:22:58.717Z,9.29
2019-03-04T00:25:07.022Z,9.29
2019-03-04T00:27:14.684Z,9.27
2019-03-04T00:29:22.252Z,9.26
2019-03-04T00:31:29.870Z,9.27
2019-03-04T00:33:37.611Z,9.27
2019-03-04T00:35:45.326Z,9.30
2019-03-04T00:37:53.003Z,9.31
2019-03-04T00:40:00.572Z,9.33
2019-03-04T00:42:09.287Z,9.33
2019-03-04T00:44:16.888Z,9.33
2019-03-04T00:46:24.457Z,9.33
2019-03-04T00:48:32.034Z,9.32
2019-03-04T00:50:39.537Z,9.31
2019-03-04T00:52:47.113Z,9.30
2019-03-04T00:54:54.683Z,9.29
2019-03-04T00:57:02.287Z,9.28
2019-03-04T00:59:09.767Z,9.27
2019-03-04T01:01:18.304Z,9.25
2019-03-04T01:03:25.821Z,9.25
2019-03-04T01:05:33.458Z,9.24
2019-03-04T01:07:41.443Z,9.24
2019-03-04T01:09:49.052Z,9.23
2019-03-04T01:11:57.036Z,9.24
2019-03-04T01:14:05.051Z,9.25
2019-03-04T01:16:12.660Z,9.26
2019-03-04T01:18:20.126Z,9.27
2019-03-04T01:20:27.763Z,9.28
2019-03-04T01:22:35.439Z,9.28
2019-03-04T01:24:43.097Z,9.30
2019-03-04T01:26:50.637Z,9.31
2019-03-04T01:28:58.144Z,9.31
2019-03-04T01:31:07.208Z,9.32
2019-03-04T01:33:14.952Z,9.34
2019-03-04T01:35:22.704Z,9.35
2019-03-04T01:37:30.540Z,9.36
2019-03-04T01:39:38.183Z,9.35
2019-03-04T01:41:45.794Z,9.37
2019-03-04T01:43:53.465Z,9.40
2019-03-04T01:46:01.044Z,9.39
2019-03-04T01:48:08.647Z,9.41
2019-03-04T01:50:20.781Z,9.40
2019-03-04T01:52:28.276Z,9.40
2019-03-04T01:54:35.959Z,9.41
2019-03-04T01:56:43.600Z,9.40
2019-03-04T01:58:51.176Z,9.41
2019-03-04T02:00:58.777Z,9.41
2019-03-04T02:03:06.590Z,9.41
2019-03-04T02:05:14.587Z,9.42
2019-03-04T02:07:22.117Z,9.43
2019-03-04T02:09:29.688Z,9.46
2019-03-04T02:11:37.256Z,9.48
2019-03-04T02:13:46.041Z,9.49
2019-03-04T02:15:53.575Z,9.49
2019-03-04T02:18:01.147Z,9.52
2019-03-04T02:20:19.313Z,9.52
2019-03-04T02:22:26.887Z,9.52
2019-03-04T02:24:34.455Z,9.53
2019-03-04T02:26:42.053Z,9.53
2019-03-04T02:28:49.619Z,9.53
2019-03-04T02:30:57.093Z,9.53
2019-03-04T02:33:05.161Z,9.54
2019-03-04T02:35:12.808Z,9.52
2019-03-04T02:37:20.346Z,9.53
2019-03-04T02:39:27.944Z,9.54
2019-03-04T02:41:35.753Z,9.53
2019-03-04T02:43:43.404Z,9.52
2019-03-04T02:45:51.105Z,9.53
2019-03-04T02:47:59.202Z,9.55
2019-03-04T02:50:08.376Z,9.56
2019-03-04T02:52:15.875Z,9.55
2019-03-04T02:54:23.515Z,9.59
2019-03-04T02:56:31.195Z,9.58
2019-03-04T02:58:38.761Z,9.61
2019-03-04T03:00:46.509Z,9.65
2019-03-04T03:02:54.087Z,9.67
2019-03-04T03:05:01.702Z,9.71
2019-03-04T03:07:09.729Z,9.70
2019-03-04T03:09:17.307Z,9.69
2019-03-04T03:11:24.906Z,9.66
2019-03-04T03:13:33.455Z,9.63
2019-03-04T03:15:41.120Z,9.60
2019-03-04T03:17:48.796Z,9.57
2019-03-04T03:19:56.368Z,9.51
2019-03-04T03:22:04.081Z,9.49
2019-03-04T03:24:11.674Z,9.48
2019-03-04T03:26:19.240Z,9.44
2019-03-04T03:28:26.715Z,9.43
2019-03-04T03:30:34.218Z,9.43
2019-03-04T03:32:42.927Z,9.40
2019-03-04T03:34:50.466Z,9.40
2019-03-04T03:36:58.072Z,9.41
2019-03-04T03:39:07.251Z,9.40
2019-03-04T03:41:15.359Z,9.40
2019-03-04T03:43:23.020Z,9.40
2019-03-04T03:45:30.590Z,9.41
2019-03-04T03:47:38.230Z,9.41
2019-03-04T03:49:45.721Z,9.40
2019-03-04T03:51:53.470Z,9.39
2019-03-04T03:54:01.159Z,9.41
2019-03-04T03:56:08.824Z,9.43
2019-03-04T03:58:16.363Z,9.43
2019-03-04T04:00:25.544Z,9.47
2019-03-04T04:02:33.046Z,9.47
2019-03-04T04:04:40.620Z,9.48
2019-03-04T04:06:48.190Z,9.50
2019-03-04T04:08:55.694Z,9.52
2019-03-04T04:11:03.283Z,9.43
2019-03-04T04:13:10.915Z,9.48
2019-03-04T04:15:20.268Z,9.51
2019-03-04T04:17:29.785Z,9.51
2019-03-04T04:19:37.252Z,9.50
2019-03-04T04:21:44.925Z,9.49
2019-03-04T04:23:52.470Z,9.36
2019-03-04T04:26:00.048Z,9.33
2019-03-04T04:28:09.313Z,9.37
2019-03-04T04:30:25.125Z,9.31
2019-03-04T04:32:32.687Z,9.29
2019-03-04T04:34:40.195Z,9.32
2019-03-04T04:36:47.739Z,9.32
2019-03-04T04:38:55.304Z,9.31
2019-03-04T04:41:02.909Z,9.29
2019-03-04T04:43:10.948Z,9.26
2019-03-04T04:45:18.691Z,9.25
2019-03-04T04:47:26.361Z,9.24
2019-03-04T04:49:33.932Z,9.23
2019-03-04T04:51:41.409Z,9.22
2019-03-04T04:53:49.005Z,9.20
2019-03-04T04:55:56.577Z,9.20
2019-03-04T04:58:05.515Z,9.19
2019-03-04T05:00:21.345Z,9.18
2019-03-04T05:02:28.914Z,9.17
2019-03-04T05:04:36.452Z,9.18
2019-03-04T05:06:44.153Z,9.19
2019-03-04T05:08:51.720Z,9.20
2019-03-04T05:10:59.206Z,9.20
2019-03-04T05:13:06.809Z,9.21
2019-03-04T05:15:16.792Z,9.21
2019-03-04T05:17:24.369Z,9.22
2019-03-04T05:19:31.999Z,9.23
2019-03-04T05:21:39.538Z,9.21
2019-03-04T05:23:49.018Z,9.21
2019-03-04T05:25:56.637Z,9.20
2019-03-04T05:28:04.286Z,9.20
2019-03-04T05:30:22.186Z,9.20
2019-03-04T05:32:29.679Z,9.19
2019-03-04T05:34:37.332Z,9.19
2019-03-04T05:36:44.787Z,9.18
2019-03-04T05:38:52.402Z,9.18
2019-03-04T05:40:59.882Z,9.20
2019-03-04T05:43:07.458Z,9.20
2019-03-04T05:45:19.728Z,9.20
2019-03-04T05:47:27.198Z,9.19
2019-03-04T05:49:36.062Z,9.18
2019-03-04T05:51:43.687Z,9.18
2019-03-04T05:53:51.232Z,9.18
2019-03-04T05:55:58.800Z,9.19
2019-03-04T05:58:06.462Z,9.18
2019-03-04T06:00:24.699Z,9.19
2019-03-04T06:02:32.289Z,9.19
2019-03-04T06:04:41.188Z,9.23
2019-03-04T06:06:50.395Z,9.23
2019-03-04T06:08:58.036Z,9.26
2019-03-04T06:11:08.216Z,9.32
2019-03-04T06:13:15.792Z,9.37
2019-03-04T06:15:24.337Z,9.38
2019-03-04T06:17:31.940Z,9.42
2019-03-04T06:19:40.485Z,9.44
2019-03-04T06:21:48.144Z,9.47
2019-03-04T06:23:55.746Z,9.51
2019-03-04T06:26:03.323Z,9.55
2019-03-04T06:28:12.007Z,9.59
2019-03-04T06:30:22.988Z,9.64
2019-03-04T06:32:30.556Z,9.65
2019-03-04T06:34:38.225Z,9.69
2019-03-04T06:36:45.841Z,9.72
2019-03-04T06:38:53.485Z,9.78
2019-03-04T06:41:01.057Z,9.81
2019-03-04T06:43:08.730Z,9.77
2019-03-04T06:45:18.217Z,9.85
2019-03-04T06:47:25.755Z,9.87
2019-03-04T06:49:33.267Z,9.90
2019-03-04T06:51:40.909Z,9.89
2019-03-04T06:54:05.174Z,9.91
2019-03-04T06:56:35.202Z,9.93
2019-03-04T06:59:06.628Z,9.94
2019-03-04T07:01:18.609Z,9.91
2019-03-04T07:03:26.184Z,9.90
2019-03-04T07:05:50.506Z,9.85
2019-03-04T07:07:58.199Z,9.91
2019-03-04T07:10:09.122Z,9.95
2019-03-04T07:12:16.707Z,9.95
2019-03-04T07:14:24.384Z,9.97
2019-03-04T07:16:32.287Z,9.97
2019-03-04T07:18:40.051Z,10.02
2019-03-04T07:20:47.995Z,10.04
2019-03-04T07:22:55.599Z,10.07
2019-03-04T07:25:03.091Z,10.11
2019-03-04T07:27:10.829Z,10.11
2019-03-04T07:29:18.547Z,10.18
2019-03-04T07:31:26.120Z,10.23
2019-03-04T07:33:33.703Z,10.28
2019-03-04T07:35:41.453Z,10.32
2019-03-04T07:37:52.286Z,10.39
2019-03-04T07:39:59.865Z,10.47
2019-03-04T07:42:07.563Z,10.53
2019-03-04T07:44:15.175Z,10.62
2019-03-04T07:46:22.918Z,10.70
2019-03-04T07:48:30.536Z,10.77
2019-03-04T07:50:38.257Z,10.86
2019-03-04T07:52:45.843Z,10.91
2019-03-04T07:54:53.444Z,10.91
2019-03-04T07:57:01.098Z,10.93
2019-03-04T07:59:08.751Z,11.06
2019-03-04T08:01:16.268Z,11.13
2019-03-04T08:03:23.747Z,11.18
2019-03-04T08:05:31.298Z,11.17
2019-03-04T08:07:49.357Z,11.20
2019-03-04T08:10:40.972Z,11.36
2019-03-04T08:13:08.347Z,11.45
2019-03-04T08:15:16.009Z,11.55
2019-03-04T08:17:23.744Z,11.62
2019-03-04T08:19:31.268Z,11.72
2019-03-04T08:21:39.711Z,11.78
2019-03-04T08:23:47.380Z,11.84
2019-03-04T08:25:54.997Z,11.89
2019-03-04T08:28:02.831Z,11.99
2019-03-04T08:30:15.064Z,12.11
2019-03-04T08:32:22.649Z,12.17
2019-03-04T08:34:33.184Z,12.27
2019-03-04T08:36:40.879Z,12.37
2019-03-04T08:38:48.497Z,12.47
2019-03-04T08:40:56.154Z,12.55
2019-03-04T08:43:03.987Z,12.62
2019-03-04T08:45:15.222Z,12.70
2019-03-04T08:47:23.780Z,12.76
2019-03-04T08:49:31.373Z,12.84
2019-03-04T08:51:39.095Z,12.92
2019-03-04T08:53:46.701Z,12.99
2019-03-04T08:55:54.285Z,13.09
2019-03-04T08:58:01.907Z,13.15
2019-03-04T09:00:20.763Z,13.20
2019-03-04T09:02:28.352Z,13.25
2019-03-04T09:04:35.979Z,13.32
2019-03-04T09:06:43.810Z,13.41
2019-03-04T09:08:51.461Z,13.50
2019-03-04T09:10:59.082Z,13.55
2019-03-04T09:13:08.379Z,13.66
2019-03-04T09:15:17.083Z,13.71
2019-03-04T09:17:24.835Z,13.79
2019-03-04T09:19:32.640Z,13.87
2019-03-04T09:21:41.788Z,13.91
2019-03-04T09:23:50.086Z,13.97
2019-03-04T09:26:02.369Z,14.00
2019-03-04T09:28:09.947Z,14.03
2019-03-04T09:30:18.506Z,14.09
2019-03-04T09:32:26.165Z,14.14
2019-03-04T09:34:33.756Z,14.24
2019-03-04T09:36:41.373Z,14.30
2019-03-04T09:38:49.026Z,14.43
2019-03-04T09:40:56.613Z,14.45
2019-03-04T09:43:06.376Z,14.57
2019-03-04T09:45:16.367Z,14.59
2019-03-04T09:47:23.921Z,14.56
2019-03-04T09:49:31.542Z,14.41
2019-03-04T09:51:39.160Z,14.40
2019-03-04T09:53:46.652Z,14.54
2019-03-04T09:55:54.789Z,14.61
2019-03-04T09:58:02.371Z,14.66
2019-03-04T10:00:44.626Z,14.68
2019-03-04T10:02:56.586Z,14.72
2019-03-04T10:05:13.397Z,14.75
2019-03-04T10:07:32.988Z,14.77
2019-03-04T10:10:02.834Z,14.75
2019-03-04T10:12:38.858Z,14.76
2019-03-04T10:15:10.443Z,14.82
2019-03-04T10:17:31.720Z,14.83
2019-03-04T10:20:18.981Z,14.84
2019-03-04T10:22:50.927Z,14.82
2019-03-04T10:25:29.804Z,14.86
2019-03-04T10:28:06.040Z,14.88
2019-03-04T10:30:26.831Z,14.90
2019-03-04T10:33:07.625Z,15.06
2019-03-04T10:35:56.517Z,15.16
2019-03-04T10:38:34.563Z,15.15
2019-03-04T10:40:53.670Z,15.12
2019-03-04T10:43:34.587Z,15.09
2019-03-04T10:46:13.908Z,15.12
2019-03-04T10:48:21.485Z,15.12
2019-03-04T10:50:29.085Z,15.22
2019-03-04T10:52:36.685Z,15.30
2019-03-04T10:54:44.407Z,15.41
2019-03-04T10:56:52.990Z,15.49
2019-03-04T10:59:00.574Z,15.57
2019-03-04T11:01:08.329Z,15.61
2019-03-04T11:03:16.005Z,15.64
2019-03-04T11:05:23.755Z,15.71
2019-03-04T11:07:31.309Z,15.70
2019-03-04T11:09:38.827Z,15.64
2019-03-04T11:11:46.546Z,15.69
2019-03-04T11:13:54.208Z,15.64
2019-03-04T11:16:01.815Z,15.67
2019-03-04T11:18:10.754Z,15.70
2019-03-04T11:20:18.447Z,15.91
2019-03-04T11:22:27.917Z,16.07
2019-03-04T11:24:35.463Z,16.20
2019-03-04T11:26:43.112Z,16.32
2019-03-04T11:28:50.717Z,16.37
2019-03-04T11:30:58.198Z,16.27
2019-03-04T11:33:06.992Z,16.34
2019-03-04T11:35:15.045Z,16.20
2019-03-04T11:37:22.521Z,16.21
2019-03-04T11:39:34.438Z,16.11
2019-03-04T11:41:42.038Z,16.18
2019-03-04T11:43:49.593Z,16.23
2019-03-04T11:45:58.375Z,16.29
2019-03-04T11:48:06.195Z,16.35
2019-03-04T11:50:16.528Z,16.43
2019-03-04T11:52:24.150Z,16.49
2019-03-04T11:54:31.940Z,16.57
2019-03-04T11:56:39.414Z,16.59
2019-03-04T11:58:47.107Z,16.69
2019-03-04T12:00:56.528Z,16.84
2019-03-04T12:03:04.244Z,16.97
2019-03-04T12:05:13.834Z,16.98
2019-03-04T12:07:21.516Z,16.92
2019-03-04T12:09:29.039Z,16.94
2019-03-04T12:11:38.401Z,16.97
2019-03-04T12:13:45.926Z,16.92
2019-03-04T12:15:55.141Z,16.96
2019-03-04T12:18:02.905Z,16.97
2019-03-04T12:20:13.032Z,17.01
2019-03-04T12:22:21.657Z,17.03
2019-03-04T12:24:30.185Z,17.01
2019-03-04T12:26:38.006Z,17.05
2019-03-04T12:28:45.594Z,17.09
2019-03-04T12:30:53.203Z,17.11
2019-03-04T12:33:00.885Z,17.12
2019-03-04T12:35:11.637Z,17.14
2019-03-04T12:37:19.123Z,17.17
2019-03-04T12:39:26.789Z,17.22
2019-03-04T12:41:34.361Z,17.23
2019-03-04T12:53:23.441Z,17.31
2019-03-04T12:55:31.364Z,17.36
2019-03-04T12:57:40.889Z,17.47
2019-03-04T12:59:48.463Z,17.60
2019-03-04T13:01:56.040Z,17.68
2019-03-04T13:04:03.850Z,17.67
2019-03-04T13:06:11.453Z,17.63
2019-03-04T13:08:19.040Z,17.47
2019-03-04T13:10:26.610Z,17.21
2019-03-04T13:12:34.221Z,17.28
2019-03-04T13:14:41.966Z,17.25
2019-03-04T13:16:49.442Z,17.21
2019-03-04T13:18:56.957Z,17.24
2019-03-04T13:21:04.613Z,17.29
2019-03-04T13:23:13.328Z,17.25
2019-03-04T13:25:22.137Z,17.36
2019-03-04T13:27:29.691Z,17.42
2019-03-04T13:29:37.349Z,17.44
2019-03-04T13:31:44.966Z,17.55
2019-03-04T13:33:52.769Z,17.65
2019-03-04T13:36:00.376Z,17.69
2019-03-04T13:38:08.046Z,17.73
2019-03-04T13:40:15.962Z,17.71
2019-03-04T13:42:23.583Z,17.67
2019-03-04T13:44:31.164Z,17.58
2019-03-04T13:46:40.158Z,17.51
2019-03-04T13:48:47.833Z,17.45
2019-03-04T13:50:55.509Z,17.33
2019-03-04T13:53:03.101Z,17.13
2019-03-04T13:55:10.828Z,17.20
2019-03-04T13:57:18.437Z,17.19
2019-03-04T13:59:26.073Z,17.16
2019-03-04T14:01:33.647Z,17.14
2019-03-04T14:03:41.176Z,17.10
2019-03-04T14:05:48.827Z,17.09
2019-03-04T14:07:56.505Z,17.05
2019-03-04T14:10:06.459Z,17.07
2019-03-04T14:12:14.027Z,17.05
2019-03-04T14:14:21.750Z,16.99
2019-03-04T14:16:29.631Z,16.96
2019-03-04T14:18:37.290Z,16.95
2019-03-04T14:20:45.010Z,16.97
2019-03-04T14:22:57.767Z,16.93
2019-03-04T14:25:01.900Z,16.93
2019-03-04T14:27:10.383Z,16.93
2019-03-04T14:29:18.126Z,16.97
2019-03-04T14:31:26.993Z,17.00
2019-03-04T14:33:34.757Z,17.06
2019-03-04T14:35:42.586Z,17.11
2019-03-04T14:37:50.240Z,17.14
2019-03-04T14:39:57.832Z,17.13
2019-03-04T14:42:06.647Z,17.12
2019-03-04T14:44:15.375Z,17.11
2019-03-04T14:46:24.476Z,17.07
2019-03-04T14:48:32.063Z,17.00
2019-03-04T14:50:39.667Z,16.97
2019-03-04T14:52:47.559Z,16.89
2019-03-04T14:54:55.178Z,16.77
2019-03-04T14:57:02.776Z,16.68
2019-03-04T14:59:11.357Z,16.58
2019-03-04T15:01:19.031Z,16.49
2019-03-04T15:03:26.520Z,16.40
2019-03-04T15:05:35.621Z,16.32
2019-03-04T15:07:43.218Z,16.21
2019-03-04T15:09:50.812Z,16.17
2019-03-04T15:11:58.473Z,16.13
2019-03-04T15:14:06.179Z,16.11
2019-03-04T15:16:13.841Z,16.09
2019-03-04T15:18:22.511Z,16.00
2019-03-04T15:20:33.507Z,16.05
2019-03-04T15:22:41.380Z,16.04
2019-03-04T15:24:49.169Z,15.99
2019-03-04T15:26:56.781Z,15.99
2019-03-04T15:29:07.156Z,15.98
2019-03-04T15:31:15.032Z,15.93
2019-03-04T15:33:22.611Z,15.96
2019-03-04T15:35:30.193Z,16.05
2019-03-04T15:37:37.920Z,16.07
2019-03-04T15:39:45.677Z,16.03
2019-03-04T15:41:53.273Z,15.95
2019-03-04T15:44:00.842Z,15.84
2019-03-04T15:46:08.520Z,15.73
2019-03-04T15:48:17.409Z,15.66
2019-03-04T15:50:25.081Z,15.60
2019-03-04T15:52:32.704Z,15.54
2019-03-04T15:54:40.358Z,15.48
2019-03-04T15:56:49.030Z,15.45
2019-03-04T15:58:56.792Z,15.42
2019-03-04T16:01:05.262Z,15.42
2019-03-04T16:03:13.108Z,15.42
2019-03-04T16:05:20.780Z,15.37
2019-03-04T16:07:28.502Z,15.31
2019-03-04T16:09:36.438Z,15.26
2019-03-04T16:11:44.059Z,15.35
2019-03-04T16:13:55.122Z,15.21
2019-03-04T16:16:01.106Z,15.24
2019-03-04T16:18:08.853Z,15.15
2019-03-04T16:20:23.089Z,15.09
2019-03-04T16:22:30.647Z,15.15
2019-03-04T16:24:38.173Z,15.03
2019-03-04T16:26:45.766Z,15.11
2019-03-04T16:28:53.353Z,14.96
2019-03-04T16:31:01.864Z,14.99
2019-03-04T16:33:09.633Z,14.96
2019-03-04T16:35:17.287Z,14.95
2019-03-04T16:37:24.976Z,14.98
2019-03-04T16:39:32.651Z,14.89
2019-03-04T16:41:40.237Z,14.85
2019-03-04T16:43:47.873Z,14.76
2019-03-04T16:45:55.480Z,14.67
2019-03-04T16:48:03.274Z,14.69
2019-03-04T16:50:14.894Z,14.71
2019-03-04T16:52:26.905Z,14.59
2019-03-04T16:54:34.411Z,14.60
2019-03-04T16:56:42.032Z,14.70
2019-03-04T16:58:49.619Z,14.72
2019-03-04T17:00:57.917Z,14.73
2019-03-04T17:03:05.605Z,14.69
2019-03-04T17:05:16.809Z,14.62
2019-03-04T17:07:24.475Z,14.50
2019-03-04T17:09:32.069Z,14.37
2019-03-04T17:11:39.726Z,14.25
2019-03-04T17:13:47.215Z,14.12
2019-03-04T17:15:55.909Z,13.94
2019-03-04T17:18:03.397Z,13.82
2019-03-04T17:20:14.751Z,13.79
2019-03-04T17:22:22.334Z,13.74
2019-03-04T17:24:30.150Z,13.79
2019-03-04T17:26:37.706Z,13.75
2019-03-04T17:28:45.352Z,13.72
2019-03-04T17:30:54.196Z,13.68
2019-03-04T17:33:02.789Z,13.68
2019-03-04T17:35:13.999Z,13.63
2019-03-04T17:37:21.723Z,13.72
2019-03-04T17:39:29.393Z,13.78
2019-03-04T17:41:37.182Z,13.79
2019-03-04T17:43:44.785Z,13.67
2019-03-04T17:45:52.451Z,13.44
2019-03-04T17:48:00.080Z,13.28
2019-03-04T17:50:12.116Z,13.18
2019-03-04T17:52:20.785Z,13.23
2019-03-04T17:54:28.467Z,13.37
2019-03-04T17:56:36.077Z,13.40
2019-03-04T17:58:43.810Z,13.36
2019-03-04T18:00:54.062Z,13.23
2019-03-04T18:03:01.697Z,13.05
2019-03-04T18:05:11.313Z,13.02
2019-03-04T18:07:18.843Z,13.06
2019-03-04T18:09:26.531Z,13.07
2019-03-04T18:11:34.265Z,13.06
2019-03-04T18:13:42.868Z,12.88
2019-03-04T18:15:50.534Z,12.82
2019-03-04T18:17:58.143Z,12.85
2019-03-04T18:20:10.477Z,12.85
2019-03-04T18:22:18.145Z,12.64
2019-03-04T18:24:25.752Z,12.53
2019-03-04T18:26:38.081Z,12.55
2019-03-04T18:29:02.479Z,12.66
2019-03-04T18:31:20.719Z,12.52
2019-03-04T18:33:50.236Z,12.65
2019-03-04T18:36:05.297Z,12.65
2019-03-04T18:38:41.892Z,12.59
2019-03-04T18:41:18.290Z,12.57
2019-03-04T18:43:49.913Z,12.65
2019-03-04T18:46:23.075Z,12.69
2019-03-04T18:48:52.779Z,12.74
2019-03-04T18:51:00.273Z,12.82
2019-03-04T18:53:07.962Z,12.87
2019-03-04T18:55:15.693Z,12.93
2019-03-04T18:57:23.354Z,12.99
2019-03-04T18:59:31.116Z,13.05
2019-03-04T19:01:38.779Z,13.10
2019-03-04T19:03:46.539Z,13.14
2019-03-04T19:05:54.237Z,13.17
2019-03-04T19:08:02.147Z,13.20
2019-03-04T19:10:13.002Z,13.22
2019-03-04T19:12:20.816Z,13.25
2019-03-04T19:14:28.398Z,13.28
2019-03-04T19:16:36.066Z,13.30
2019-03-04T19:18:44.755Z,13.25
2019-03-04T19:20:52.598Z,13.32
2019-03-04T19:23:00.267Z,13.36
2019-03-04T19:25:09.267Z,13.40
2019-03-04T19:27:16.995Z,13.40
2019-03-04T19:29:24.589Z,13.37
2019-03-04T19:31:32.989Z,13.36
2019-03-04T19:33:40.705Z,13.29
2019-03-04T19:35:48.303Z,13.30
2019-03-04T19:37:56.006Z,13.27
2019-03-04T19:40:06.169Z,13.23
2019-03-04T19:42:14.060Z,13.25
2019-03-04T19:44:21.852Z,13.30
2019-03-04T19:46:29.675Z,13.26
2019-03-04T19:48:38.377Z,13.30
2019-03-04T19:50:46.092Z,13.20
2019-03-04T19:52:53.681Z,13.26
2019-03-04T19:55:01.329Z,13.12
2019-03-04T19:57:09.204Z,13.29
2019-03-04T19:59:16.866Z,13.11
2019-03-04T20:01:24.622Z,13.10
2019-03-04T20:03:32.450Z,13.37
2019-03-04T20:05:40.782Z,12.93
2019-03-04T20:07:48.992Z,12.81
2019-03-04T20:09:56.502Z,12.70
2019-03-04T20:12:04.228Z,12.53
2019-03-04T20:14:12.254Z,12.65
2019-03-04T20:16:20.217Z,12.48
2019-03-04T20:18:27.865Z,12.14
2019-03-04T20:20:35.521Z,11.79
2019-03-04T20:22:43.204Z,11.65
2019-03-04T20:24:50.855Z,11.37
2019-03-04T20:26:58.441Z,10.88
2019-03-04T20:29:05.940Z,10.53
2019-03-04T20:31:14.021Z,10.26
2019-03-04T20:33:21.742Z,10.17
2019-03-04T20:35:29.399Z,10.27
2019-03-04T20:37:37.195Z,10.20
2019-03-04T20:39:44.914Z,10.27
2019-03-04T20:41:53.088Z,9.99
2019-03-04T20:44:01.728Z,10.21
2019-03-04T20:46:09.272Z,9.80
2019-03-04T20:48:16.940Z,10.05
2019-03-04T20:50:25.749Z,10.09
2019-03-04T20:52:33.287Z,10.22
2019-03-04T20:54:40.989Z,10.31
2019-03-04T20:56:48.466Z,10.42
2019-03-04T20:58:56.100Z,10.19
2019-03-04T21:01:03.742Z,10.41
2019-03-04T21:03:11.457Z,10.50
2019-03-04T21:05:19.172Z,10.48
2019-03-04T21:07:27.221Z,10.46
2019-03-04T21:09:34.805Z,10.42
2019-03-04T21:11:42.483Z,10.35
2019-03-04T21:13:50.151Z,10.31
2019-03-04T21:15:57.774Z,10.25
2019-03-04T21:18:06.201Z,10.18
2019-03-04T21:20:18.427Z,10.07
2019-03-04T21:22:26.036Z,10.03
2019-03-04T21:24:33.746Z,9.92
2019-03-04T21:26:41.488Z,9.88
2019-03-04T21:29:02.512Z,9.82
2019-03-04T21:31:31.903Z,9.82
2019-03-04T21:34:11.554Z,9.81
2019-03-04T21:36:45.636Z,9.75
2019-03-04T21:38:57.484Z,9.67
2019-03-04T21:41:21.964Z,9.61
2019-03-04T21:43:40.400Z,9.56
2019-03-04T21:46:01.920Z,9.56
2019-03-04T21:48:26.232Z,9.54
2019-03-04T21:51:04.100Z,9.52
2019-03-04T21:53:23.107Z,9.51
2019-03-04T21:55:56.294Z,9.48
2019-03-04T21:58:04.290Z,9.43
2019-03-04T22:00:17.268Z,9.41
2019-03-04T22:02:44.808Z,9.38
2019-03-04T22:04:53.827Z,9.36
2019-03-04T22:07:01.627Z,9.34
2019-03-04T22:09:10.082Z,9.31
2019-03-04T22:11:17.893Z,9.30
2019-03-04T22:13:25.802Z,9.31
2019-03-04T22:15:34.725Z,9.29
2019-03-04T22:17:42.997Z,9.27
2019-03-04T22:19:50.626Z,9.26
2019-03-04T22:21:59.192Z,9.25
2019-03-04T22:24:07.072Z,9.23
2019-03-04T22:26:14.703Z,9.19
2019-03-04T22:28:22.371Z,9.21
2019-03-04T22:30:30.138Z,9.21
2019-03-04T22:32:37.776Z,9.21
2019-03-04T22:34:45.369Z,9.17
2019-03-04T22:36:53.546Z,9.15
2019-03-04T22:39:01.223Z,9.13
2019-03-04T22:41:10.401Z,9.10
2019-03-04T22:43:17.972Z,9.08
2019-03-04T22:45:25.693Z,9.07
2019-03-04T22:47:33.367Z,9.06
2019-03-04T22:49:41.135Z,9.04
2019-03-04T22:51:48.719Z,9.03
2019-03-04T22:53:56.249Z,8.99
2019-03-04T22:56:03.838Z,8.97
2019-03-04T22:58:11.567Z,8.98
2019-03-04T23:00:52.091Z,8.95
2019-03-04T23:03:00.097Z,8.94
2019-03-04T23:05:11.376Z,8.92
2019-03-04T23:07:18.943Z,8.89
2019-03-04T23:09:47.153Z,8.90
2019-03-04T23:12:17.717Z,8.88
2019-03-04T23:14:30.629Z,8.86
2019-03-04T23:16:38.088Z,8.85
2019-03-04T23:18:45.727Z,8.83
2019-03-04T23:20:53.388Z,8.83
2019-03-04T23:23:01.054Z,8.83
2019-03-04T23:25:12.955Z,8.83
2019-03-04T23:27:20.565Z,8.85
2019-03-04T23:29:28.132Z,8.83
2019-03-04T23:31:36.777Z,8.83
2019-03-04T23:33:44.265Z,8.82
2019-03-04T23:35:51.730Z,8.83
2019-03-04T23:38:00.138Z,8.81
2019-03-04T23:40:11.526Z,8.84
2019-03-04T23:42:19.155Z,8.83
2019-03-04T23:44:26.763Z,8.83
2019-03-04T23:46:34.261Z,8.85
2019-03-04T23:48:41.900Z,8.88
2019-03-04T23:50:49.537Z,8.91
2019-03-04T23:52:57.024Z,8.92
2019-03-04T23:55:05.598Z,8.89
2019-03-04T23:57:13.220Z,8.91
2019-03-04T23:59:20.711Z,8.92
